sensor_id;sensor_type;location;lat;lon;timestamp;P1;durP1;ratioP1;P2;durP2;ratioP2
12760;SDS011;6444;49.742;6.114;2023-09-12T00:00:51;16.62;;;12.93;;
12760;SDS011;6444;49.742;6.114;2023-09-12T00:03:21;15.85;;;14.15;;
12760;SDS011;6444;49.742;6.114;2023-09-12T00:05:52;17.65;;;14.50;;
12760;SDS011;6444;49.742;6.114;2023-09-12T00:08:19;18.45;;;16.50;;
12760;SDS011;6444;49.742;6.114;2023-09-12T00:10:46;17.58;;;15.25;;
12760;SDS011;6444;49.742;6.114;2023-09-12T00:13:12;16.65;;;14.30;;
12760;SDS011;6444;49.742;6.114;2023-09-12T00:15:39;17.00;;;15.33;;
12760;SDS011;6444;49.742;6.114;2023-09-12T00:18:06;15.02;;;13.43;;
12760;SDS011;6444;49.742;6.114;2023-09-12T00:20:32;15.40;;;13.75;;
12760;SDS011;6444;49.742;6.114;2023-09-12T00:22:59;17.73;;;13.88;;
12760;SDS011;6444;49.742;6.114;2023-09-12T00:25:26;17.42;;;13.85;;
12760;SDS011;6444;49.742;6.114;2023-09-12T00:27:52;14.77;;;13.30;;
12760;SDS011;6444;49.742;6.114;2023-09-12T00:30:19;14.48;;;12.98;;
12760;SDS011;6444;49.742;6.114;2023-09-12T00:32:46;17.23;;;15.18;;
12760;SDS011;6444;49.742;6.114;2023-09-12T00:35:12;16.40;;;13.80;;
12760;SDS011;6444;49.742;6.114;2023-09-12T00:37:39;17.27;;;14.60;;
12760;SDS011;6444;49.742;6.114;2023-09-12T00:40:06;19.90;;;17.77;;
12760;SDS011;6444;49.742;6.114;2023-09-12T00:42:32;17.02;;;14.45;;
12760;SDS011;6444;49.742;6.114;2023-09-12T00:44:59;17.65;;;15.80;;
12760;SDS011;6444;49.742;6.114;2023-09-12T00:47:26;16.00;;;14.25;;
12760;SDS011;6444;49.742;6.114;2023-09-12T00:49:52;18.75;;;14.60;;
12760;SDS011;6444;49.742;6.114;2023-09-12T00:52:19;17.73;;;15.20;;
12760;SDS011;6444;49.742;6.114;2023-09-12T00:54:46;19.00;;;17.17;;
12760;SDS011;6444;49.742;6.114;2023-09-12T00:57:12;15.73;;;14.13;;
12760;SDS011;6444;49.742;6.114;2023-09-12T00:59:40;17.23;;;14.20;;
12760;SDS011;6444;49.742;6.114;2023-09-12T01:02:06;18.77;;;14.63;;
12760;SDS011;6444;49.742;6.114;2023-09-12T01:04:33;15.43;;;13.93;;
12760;SDS011;6444;49.742;6.114;2023-09-12T01:06:59;15.55;;;13.95;;
12760;SDS011;6444;49.742;6.114;2023-09-12T01:09:26;19.73;;;14.45;;
12760;SDS011;6444;49.742;6.114;2023-09-12T01:11:53;15.50;;;13.88;;
12760;SDS011;6444;49.742;6.114;2023-09-12T01:14:19;16.67;;;14.98;;
12760;SDS011;6444;49.742;6.114;2023-09-12T01:16:49;16.73;;;14.07;;
12760;SDS011;6444;49.742;6.114;2023-09-12T01:19:15;21.17;;;14.77;;
12760;SDS011;6444;49.742;6.114;2023-09-12T01:21:55;16.95;;;15.00;;
12760;SDS011;6444;49.742;6.114;2023-09-12T01:29:43;18.40;;;15.77;;
12760;SDS011;6444;49.742;6.114;2023-09-12T01:32:09;20.17;;;16.75;;
12760;SDS011;6444;49.742;6.114;2023-09-12T01:34:36;23.40;;;17.52;;
12760;SDS011;6444;49.742;6.114;2023-09-12T01:37:02;20.75;;;17.23;;
12760;SDS011;6444;49.742;6.114;2023-09-12T01:39:29;19.70;;;16.75;;
12760;SDS011;6444;49.742;6.114;2023-09-12T01:41:56;23.40;;;17.33;;
12760;SDS011;6444;49.742;6.114;2023-09-12T01:44:22;20.35;;;16.15;;
12760;SDS011;6444;49.742;6.114;2023-09-12T01:46:49;20.70;;;16.87;;
12760;SDS011;6444;49.742;6.114;2023-09-12T01:49:17;20.85;;;16.87;;
12760;SDS011;6444;49.742;6.114;2023-09-12T01:51:43;19.40;;;15.65;;
12760;SDS011;6444;49.742;6.114;2023-09-12T01:54:10;18.30;;;15.98;;
12760;SDS011;6444;49.742;6.114;2023-09-12T01:56:36;18.95;;;16.92;;
12760;SDS011;6444;49.742;6.114;2023-09-12T01:59:03;19.30;;;16.00;;
12760;SDS011;6444;49.742;6.114;2023-09-12T02:01:30;18.62;;;16.70;;
12760;SDS011;6444;49.742;6.114;2023-09-12T02:03:56;22.98;;;17.20;;
12760;SDS011;6444;49.742;6.114;2023-09-12T02:06:24;19.80;;;16.00;;
12760;SDS011;6444;49.742;6.114;2023-09-12T02:08:50;19.62;;;17.60;;
12760;SDS011;6444;49.742;6.114;2023-09-12T02:11:17;20.42;;;16.70;;
12760;SDS011;6444;49.742;6.114;2023-09-12T02:13:43;19.00;;;16.98;;
12760;SDS011;6444;49.742;6.114;2023-09-12T02:16:10;22.20;;;17.98;;
12760;SDS011;6444;49.742;6.114;2023-09-12T02:18:37;20.25;;;17.55;;
12760;SDS011;6444;49.742;6.114;2023-09-12T02:21:03;20.60;;;17.87;;
12760;SDS011;6444;49.742;6.114;2023-09-12T02:23:30;20.20;;;18.05;;
12760;SDS011;6444;49.742;6.114;2023-09-12T02:25:58;19.42;;;17.33;;
12760;SDS011;6444;49.742;6.114;2023-09-12T02:28:24;20.70;;;18.17;;
12760;SDS011;6444;49.742;6.114;2023-09-12T02:30:51;23.38;;;19.00;;
12760;SDS011;6444;49.742;6.114;2023-09-12T02:33:18;21.42;;;18.65;;
12760;SDS011;6444;49.742;6.114;2023-09-12T02:35:44;21.35;;;18.98;;
12760;SDS011;6444;49.742;6.114;2023-09-12T02:38:11;22.52;;;18.05;;
12760;SDS011;6444;49.742;6.114;2023-09-12T02:40:38;23.05;;;17.90;;
12760;SDS011;6444;49.742;6.114;2023-09-12T02:43:04;24.70;;;19.10;;
12760;SDS011;6444;49.742;6.114;2023-09-12T02:45:31;21.15;;;18.70;;
12760;SDS011;6444;49.742;6.114;2023-09-12T02:47:58;20.92;;;18.27;;
12760;SDS011;6444;49.742;6.114;2023-09-12T02:50:24;23.08;;;19.05;;
12760;SDS011;6444;49.742;6.114;2023-09-12T02:52:51;20.48;;;18.37;;
12760;SDS011;6444;49.742;6.114;2023-09-12T02:55:17;20.88;;;17.90;;
12760;SDS011;6444;49.742;6.114;2023-09-12T02:57:44;22.20;;;19.83;;
12760;SDS011;6444;49.742;6.114;2023-09-12T03:00:11;21.90;;;19.58;;
12760;SDS011;6444;49.742;6.114;2023-09-12T03:02:37;21.37;;;19.12;;
12760;SDS011;6444;49.742;6.114;2023-09-12T03:05:04;20.88;;;17.85;;
12760;SDS011;6444;49.742;6.114;2023-09-12T03:07:31;19.67;;;17.73;;
12760;SDS011;6444;49.742;6.114;2023-09-12T03:09:57;19.00;;;17.05;;
12760;SDS011;6444;49.742;6.114;2023-09-12T03:12:24;21.08;;;16.70;;
12760;SDS011;6444;49.742;6.114;2023-09-12T03:14:51;19.48;;;17.15;;
12760;SDS011;6444;49.742;6.114;2023-09-12T03:17:17;19.52;;;16.95;;
12760;SDS011;6444;49.742;6.114;2023-09-12T03:19:44;23.67;;;21.17;;
12760;SDS011;6444;49.742;6.114;2023-09-12T03:22:11;20.42;;;17.60;;
12760;SDS011;6444;49.742;6.114;2023-09-12T03:24:37;19.00;;;17.10;;
12760;SDS011;6444;49.742;6.114;2023-09-12T03:27:04;19.27;;;16.75;;
12760;SDS011;6444;49.742;6.114;2023-09-12T03:29:30;22.53;;;20.13;;
12760;SDS011;6444;49.742;6.114;2023-09-12T03:31:57;18.25;;;16.55;;
12760;SDS011;6444;49.742;6.114;2023-09-12T03:34:24;18.12;;;15.70;;
12760;SDS011;6444;49.742;6.114;2023-09-12T03:36:50;19.58;;;16.35;;
12760;SDS011;6444;49.742;6.114;2023-09-12T03:39:17;18.85;;;16.70;;
12760;SDS011;6444;49.742;6.114;2023-09-12T03:41:44;19.45;;;17.42;;
12760;SDS011;6444;49.742;6.114;2023-09-12T03:44:10;20.92;;;16.98;;
12760;SDS011;6444;49.742;6.114;2023-09-12T03:46:37;18.52;;;16.35;;
12760;SDS011;6444;49.742;6.114;2023-09-12T03:49:03;20.42;;;17.35;;
12760;SDS011;6444;49.742;6.114;2023-09-12T03:51:30;20.27;;;17.70;;
12760;SDS011;6444;49.742;6.114;2023-09-12T03:53:57;26.00;;;18.37;;
12760;SDS011;6444;49.742;6.114;2023-09-12T03:56:24;19.62;;;17.42;;
12760;SDS011;6444;49.742;6.114;2023-09-12T03:58:51;20.17;;;18.08;;
12760;SDS011;6444;49.742;6.114;2023-09-12T04:01:17;21.87;;;18.73;;
12760;SDS011;6444;49.742;6.114;2023-09-12T04:03:44;23.23;;;19.58;;
12760;SDS011;6444;49.742;6.114;2023-09-12T04:06:11;21.87;;;18.17;;
12760;SDS011;6444;49.742;6.114;2023-09-12T04:08:37;23.98;;;19.23;;
12760;SDS011;6444;49.742;6.114;2023-09-12T04:11:04;25.92;;;20.10;;
12760;SDS011;6444;49.742;6.114;2023-09-12T04:13:31;24.02;;;19.65;;
12760;SDS011;6444;49.742;6.114;2023-09-12T04:15:58;24.33;;;20.55;;
12760;SDS011;6444;49.742;6.114;2023-09-12T04:18:25;24.63;;;19.55;;
12760;SDS011;6444;49.742;6.114;2023-09-12T04:20:51;22.80;;;20.23;;
12760;SDS011;6444;49.742;6.114;2023-09-12T04:23:18;23.67;;;20.65;;
12760;SDS011;6444;49.742;6.114;2023-09-12T04:25:45;25.88;;;21.87;;
12760;SDS011;6444;49.742;6.114;2023-09-12T04:28:14;27.37;;;22.58;;
12760;SDS011;6444;49.742;6.114;2023-09-12T04:30:40;26.83;;;23.75;;
12760;SDS011;6444;49.742;6.114;2023-09-12T04:33:07;27.77;;;23.00;;
12760;SDS011;6444;49.742;6.114;2023-09-12T04:35:34;28.33;;;22.37;;
12760;SDS011;6444;49.742;6.114;2023-09-12T04:38:00;26.67;;;23.20;;
12760;SDS011;6444;49.742;6.114;2023-09-12T04:40:27;30.98;;;24.23;;
12760;SDS011;6444;49.742;6.114;2023-09-12T04:42:54;26.30;;;23.40;;
12760;SDS011;6444;49.742;6.114;2023-09-12T04:45:20;27.95;;;24.10;;
12760;SDS011;6444;49.742;6.114;2023-09-12T04:47:47;24.83;;;21.00;;
12760;SDS011;6444;49.742;6.114;2023-09-12T04:50:14;24.40;;;21.75;;
12760;SDS011;6444;49.742;6.114;2023-09-12T04:52:41;27.15;;;21.45;;
12760;SDS011;6444;49.742;6.114;2023-09-12T04:55:07;26.15;;;22.65;;
12760;SDS011;6444;49.742;6.114;2023-09-12T04:57:34;25.52;;;22.77;;
12760;SDS011;6444;49.742;6.114;2023-09-12T05:00:01;24.60;;;21.98;;
12760;SDS011;6444;49.742;6.114;2023-09-12T05:02:27;25.25;;;22.25;;
12760;SDS011;6444;49.742;6.114;2023-09-12T05:04:54;28.73;;;25.87;;
12760;SDS011;6444;49.742;6.114;2023-09-12T05:07:21;30.02;;;26.92;;
12760;SDS011;6444;49.742;6.114;2023-09-12T05:09:47;25.37;;;22.15;;
12760;SDS011;6444;49.742;6.114;2023-09-12T05:12:15;24.25;;;21.35;;
12760;SDS011;6444;49.742;6.114;2023-09-12T05:14:41;24.80;;;20.15;;
12760;SDS011;6444;49.742;6.114;2023-09-12T05:17:08;28.42;;;19.40;;
12760;SDS011;6444;49.742;6.114;2023-09-12T05:19:35;24.52;;;19.83;;
12760;SDS011;6444;49.742;6.114;2023-09-12T05:22:01;22.87;;;19.75;;
12760;SDS011;6444;49.742;6.114;2023-09-12T05:24:28;23.75;;;20.20;;
12760;SDS011;6444;49.742;6.114;2023-09-12T05:26:54;25.98;;;21.73;;
12760;SDS011;6444;49.742;6.114;2023-09-12T05:29:21;22.35;;;19.95;;
12760;SDS011;6444;49.742;6.114;2023-09-12T05:31:48;23.65;;;20.52;;
12760;SDS011;6444;49.742;6.114;2023-09-12T05:34:15;27.42;;;21.77;;
12760;SDS011;6444;49.742;6.114;2023-09-12T05:36:42;23.87;;;21.37;;
12760;SDS011;6444;49.742;6.114;2023-09-12T05:39:08;24.23;;;21.83;;
12760;SDS011;6444;49.742;6.114;2023-09-12T05:41:35;24.75;;;21.05;;
12760;SDS011;6444;49.742;6.114;2023-09-12T05:44:02;21.90;;;19.65;;
12760;SDS011;6444;49.742;6.114;2023-09-12T05:46:28;20.77;;;18.33;;
12760;SDS011;6444;49.742;6.114;2023-09-12T05:48:55;20.60;;;18.55;;
12760;SDS011;6444;49.742;6.114;2023-09-12T05:53:51;22.10;;;18.65;;
12760;SDS011;6444;49.742;6.114;2023-09-12T05:56:17;21.40;;;18.40;;
12760;SDS011;6444;49.742;6.114;2023-09-12T05:58:44;20.65;;;17.73;;
12760;SDS011;6444;49.742;6.114;2023-09-12T06:01:11;22.10;;;19.90;;
12760;SDS011;6444;49.742;6.114;2023-09-12T06:03:37;18.87;;;16.90;;
12760;SDS011;6444;49.742;6.114;2023-09-12T06:06:04;19.45;;;17.37;;
12760;SDS011;6444;49.742;6.114;2023-09-12T06:08:30;20.42;;;16.92;;
12760;SDS011;6444;49.742;6.114;2023-09-12T06:10:57;19.15;;;17.10;;
12760;SDS011;6444;49.742;6.114;2023-09-12T06:13:27;19.98;;;17.33;;
12760;SDS011;6444;49.742;6.114;2023-09-12T06:15:53;18.92;;;16.92;;
12760;SDS011;6444;49.742;6.114;2023-09-12T06:18:20;18.62;;;16.65;;
12760;SDS011;6444;49.742;6.114;2023-09-12T06:20:47;17.27;;;15.57;;
12760;SDS011;6444;49.742;6.114;2023-09-12T06:23:13;16.73;;;15.02;;
12760;SDS011;6444;49.742;6.114;2023-09-12T06:25:40;17.40;;;15.10;;
12760;SDS011;6444;49.742;6.114;2023-09-12T06:28:08;17.60;;;15.20;;
12760;SDS011;6444;49.742;6.114;2023-09-12T06:30:33;16.70;;;15.03;;
12760;SDS011;6444;49.742;6.114;2023-09-12T06:33:00;15.20;;;13.70;;
12760;SDS011;6444;49.742;6.114;2023-09-12T06:35:27;14.20;;;12.80;;
12760;SDS011;6444;49.742;6.114;2023-09-12T06:37:54;13.48;;;11.75;;
12760;SDS011;6444;49.742;6.114;2023-09-12T06:40:20;10.82;;;9.68;;
12760;SDS011;6444;49.742;6.114;2023-09-12T06:42:46;11.60;;;10.10;;
12760;SDS011;6444;49.742;6.114;2023-09-12T06:45:13;10.52;;;9.40;;
12760;SDS011;6444;49.742;6.114;2023-09-12T06:47:40;12.82;;;10.25;;
12760;SDS011;6444;49.742;6.114;2023-09-12T06:50:06;12.82;;;9.90;;
12760;SDS011;6444;49.742;6.114;2023-09-12T06:52:33;12.98;;;9.25;;
12760;SDS011;6444;49.742;6.114;2023-09-12T06:55:00;9.75;;;8.60;;
12760;SDS011;6444;49.742;6.114;2023-09-12T06:57:26;11.25;;;9.00;;
12760;SDS011;6444;49.742;6.114;2023-09-12T06:59:53;10.57;;;9.52;;
12760;SDS011;6444;49.742;6.114;2023-09-12T07:02:20;10.00;;;8.95;;
12760;SDS011;6444;49.742;6.114;2023-09-12T07:04:46;11.15;;;9.98;;
12760;SDS011;6444;49.742;6.114;2023-09-12T07:07:13;11.75;;;9.88;;
12760;SDS011;6444;49.742;6.114;2023-09-12T07:09:39;9.77;;;8.77;;
12760;SDS011;6444;49.742;6.114;2023-09-12T07:12:06;10.80;;;8.85;;
12760;SDS011;6444;49.742;6.114;2023-09-12T07:14:33;9.68;;;8.48;;
12760;SDS011;6444;49.742;6.114;2023-09-12T07:16:59;8.10;;;7.28;;
12760;SDS011;6444;49.742;6.114;2023-09-12T07:19:26;7.82;;;7.03;;
12760;SDS011;6444;49.742;6.114;2023-09-12T07:21:53;9.07;;;7.15;;
12760;SDS011;6444;49.742;6.114;2023-09-12T07:24:19;7.50;;;6.80;;
12760;SDS011;6444;49.742;6.114;2023-09-12T07:26:46;7.18;;;6.32;;
12760;SDS011;6444;49.742;6.114;2023-09-12T07:29:12;8.50;;;6.60;;
12760;SDS011;6444;49.742;6.114;2023-09-12T07:31:39;8.90;;;6.30;;
12760;SDS011;6444;49.742;6.114;2023-09-12T07:34:06;6.78;;;6.07;;
12760;SDS011;6444;49.742;6.114;2023-09-12T07:36:32;7.82;;;7.00;;
12760;SDS011;6444;49.742;6.114;2023-09-12T07:38:59;7.45;;;6.15;;
12760;SDS011;6444;49.742;6.114;2023-09-12T07:41:26;6.70;;;6.10;;
12760;SDS011;6444;49.742;6.114;2023-09-12T07:43:52;6.95;;;6.20;;
12760;SDS011;6444;49.742;6.114;2023-09-12T07:46:19;8.32;;;6.43;;
12760;SDS011;6444;49.742;6.114;2023-09-12T07:48:45;10.38;;;6.70;;
12760;SDS011;6444;49.742;6.114;2023-09-12T07:51:15;6.20;;;5.60;;
12760;SDS011;6444;49.742;6.114;2023-09-12T07:53:39;7.50;;;5.28;;
12760;SDS011;6444;49.742;6.114;2023-09-12T07:56:05;7.05;;;6.28;;
12760;SDS011;6444;49.742;6.114;2023-09-12T07:58:32;6.55;;;5.50;;
12760;SDS011;6444;49.742;6.114;2023-09-12T08:00:59;7.37;;;5.93;;
12760;SDS011;6444;49.742;6.114;2023-09-12T08:03:26;8.20;;;6.05;;
12760;SDS011;6444;49.742;6.114;2023-09-12T08:05:56;6.25;;;5.43;;
12760;SDS011;6444;49.742;6.114;2023-09-12T08:08:22;6.68;;;5.70;;
12760;SDS011;6444;49.742;6.114;2023-09-12T08:10:49;6.65;;;5.70;;
12760;SDS011;6444;49.742;6.114;2023-09-12T08:13:15;7.53;;;5.68;;
12760;SDS011;6444;49.742;6.114;2023-09-12T08:15:42;5.90;;;5.30;;
12760;SDS011;6444;49.742;6.114;2023-09-12T08:18:08;8.23;;;5.93;;
12760;SDS011;6444;49.742;6.114;2023-09-12T08:20:35;8.10;;;6.05;;
12760;SDS011;6444;49.742;6.114;2023-09-12T08:23:02;7.75;;;5.47;;
12760;SDS011;6444;49.742;6.114;2023-09-12T08:25:29;7.57;;;5.85;;
12760;SDS011;6444;49.742;6.114;2023-09-12T08:27:56;8.80;;;6.28;;
12760;SDS011;6444;49.742;6.114;2023-09-12T08:30:22;10.07;;;6.40;;
12760;SDS011;6444;49.742;6.114;2023-09-12T08:32:49;13.10;;;5.80;;
12760;SDS011;6444;49.742;6.114;2023-09-12T08:35:15;9.20;;;6.10;;
12760;SDS011;6444;49.742;6.114;2023-09-12T08:37:43;8.80;;;5.78;;
12760;SDS011;6444;49.742;6.114;2023-09-12T08:40:10;7.87;;;5.97;;
12760;SDS011;6444;49.742;6.114;2023-09-12T08:42:40;6.82;;;6.12;;
12760;SDS011;6444;49.742;6.114;2023-09-12T08:45:03;6.68;;;6.05;;
12760;SDS011;6444;49.742;6.114;2023-09-12T08:47:29;6.32;;;5.70;;
12760;SDS011;6444;49.742;6.114;2023-09-12T08:49:57;7.25;;;6.55;;
12760;SDS011;6444;49.742;6.114;2023-09-12T08:52:24;7.07;;;6.37;;
12760;SDS011;6444;49.742;6.114;2023-09-12T08:54:50;7.18;;;6.50;;
12760;SDS011;6444;49.742;6.114;2023-09-12T08:57:17;8.20;;;6.72;;
12760;SDS011;6444;49.742;6.114;2023-09-12T08:59:43;7.70;;;5.93;;
12760;SDS011;6444;49.742;6.114;2023-09-12T09:02:10;8.68;;;7.07;;
12760;SDS011;6444;49.742;6.114;2023-09-12T09:04:38;7.95;;;6.10;;
12760;SDS011;6444;49.742;6.114;2023-09-12T09:07:04;8.35;;;6.60;;
12760;SDS011;6444;49.742;6.114;2023-09-12T09:09:31;11.73;;;7.47;;
12760;SDS011;6444;49.742;6.114;2023-09-12T09:11:57;10.75;;;6.87;;
12760;SDS011;6444;49.742;6.114;2023-09-12T09:14:24;9.73;;;7.05;;
12760;SDS011;6444;49.742;6.114;2023-09-12T09:16:51;8.38;;;6.90;;
12760;SDS011;6444;49.742;6.114;2023-09-12T09:19:17;8.05;;;7.25;;
12760;SDS011;6444;49.742;6.114;2023-09-12T09:21:44;7.70;;;6.62;;
12760;SDS011;6444;49.742;6.114;2023-09-12T09:24:12;9.52;;;7.47;;
12760;SDS011;6444;49.742;6.114;2023-09-12T09:26:43;9.48;;;8.05;;
12760;SDS011;6444;49.742;6.114;2023-09-12T09:29:08;8.18;;;7.37;;
12760;SDS011;6444;49.742;6.114;2023-09-12T09:31:40;9.85;;;7.30;;
12760;SDS011;6444;49.742;6.114;2023-09-12T09:34:10;10.00;;;8.73;;
12760;SDS011;6444;49.742;6.114;2023-09-12T09:36:33;12.82;;;7.72;;
12760;SDS011;6444;49.742;6.114;2023-09-12T09:38:59;13.20;;;9.13;;
12760;SDS011;6444;49.742;6.114;2023-09-12T09:41:26;13.07;;;7.80;;
12760;SDS011;6444;49.742;6.114;2023-09-12T09:43:53;12.05;;;7.90;;
12760;SDS011;6444;49.742;6.114;2023-09-12T09:46:19;9.38;;;7.82;;
12760;SDS011;6444;49.742;6.114;2023-09-12T09:48:50;9.63;;;7.75;;
12760;SDS011;6444;49.742;6.114;2023-09-12T09:51:16;8.48;;;7.53;;
12760;SDS011;6444;49.742;6.114;2023-09-12T09:53:42;11.50;;;8.50;;
12760;SDS011;6444;49.742;6.114;2023-09-12T09:56:12;14.10;;;9.15;;
12760;SDS011;6444;49.742;6.114;2023-09-12T09:58:57;11.80;;;8.05;;
12760;SDS011;6444;49.742;6.114;2023-09-12T10:01:18;9.77;;;8.35;;
12760;SDS011;6444;49.742;6.114;2023-09-12T10:03:41;11.15;;;8.80;;
12760;SDS011;6444;49.742;6.114;2023-09-12T10:06:07;9.55;;;7.90;;
12760;SDS011;6444;49.742;6.114;2023-09-12T10:08:34;10.88;;;9.20;;
12760;SDS011;6444;49.742;6.114;2023-09-12T10:11:01;10.00;;;8.98;;
12760;SDS011;6444;49.742;6.114;2023-09-12T10:13:27;10.05;;;8.88;;
12760;SDS011;6444;49.742;6.114;2023-09-12T10:15:54;13.57;;;9.55;;
12760;SDS011;6444;49.742;6.114;2023-09-12T10:18:22;13.10;;;10.07;;
12760;SDS011;6444;49.742;6.114;2023-09-12T10:20:50;11.98;;;9.18;;
12760;SDS011;6444;49.742;6.114;2023-09-12T10:23:18;11.90;;;9.20;;
12760;SDS011;6444;49.742;6.114;2023-09-12T10:25:41;10.02;;;9.00;;
12760;SDS011;6444;49.742;6.114;2023-09-12T10:28:08;13.32;;;9.45;;
12760;SDS011;6444;49.742;6.114;2023-09-12T10:30:35;10.98;;;8.60;;
12760;SDS011;6444;49.742;6.114;2023-09-12T10:33:02;11.98;;;8.35;;
12760;SDS011;6444;49.742;6.114;2023-09-12T10:35:28;10.82;;;8.30;;
12760;SDS011;6444;49.742;6.114;2023-09-12T10:37:54;9.98;;;8.35;;
12760;SDS011;6444;49.742;6.114;2023-09-12T10:40:21;12.10;;;8.73;;
12760;SDS011;6444;49.742;6.114;2023-09-12T10:42:48;11.55;;;8.60;;
12760;SDS011;6444;49.742;6.114;2023-09-12T10:45:14;12.80;;;8.02;;
12760;SDS011;6444;49.742;6.114;2023-09-12T10:47:41;11.63;;;8.63;;
12760;SDS011;6444;49.742;6.114;2023-09-12T10:50:08;10.60;;;9.50;;
12760;SDS011;6444;49.742;6.114;2023-09-12T10:52:34;11.52;;;8.73;;
12760;SDS011;6444;49.742;6.114;2023-09-12T10:55:02;12.25;;;9.02;;
12760;SDS011;6444;49.742;6.114;2023-09-12T10:57:28;9.95;;;8.95;;
12760;SDS011;6444;49.742;6.114;2023-09-12T11:02:32;12.02;;;8.38;;
12760;SDS011;6444;49.742;6.114;2023-09-12T11:04:58;9.88;;;8.50;;
12760;SDS011;6444;49.742;6.114;2023-09-12T11:12:42;9.88;;;8.88;;
12760;SDS011;6444;49.742;6.114;2023-09-12T11:15:09;10.18;;;8.68;;
12760;SDS011;6444;49.742;6.114;2023-09-12T11:17:38;10.40;;;8.18;;
12760;SDS011;6444;49.742;6.114;2023-09-12T11:20:05;11.23;;;9.07;;
12760;SDS011;6444;49.742;6.114;2023-09-12T11:22:32;13.62;;;8.65;;
12760;SDS011;6444;49.742;6.114;2023-09-12T11:25:01;9.63;;;8.07;;
12760;SDS011;6444;49.742;6.114;2023-09-12T11:27:25;9.80;;;8.80;;
12760;SDS011;6444;49.742;6.114;2023-09-12T11:29:52;9.25;;;8.27;;
12760;SDS011;6444;49.742;6.114;2023-09-12T11:32:25;12.77;;;8.50;;
12760;SDS011;6444;49.742;6.114;2023-09-12T11:34:53;9.35;;;7.62;;
12760;SDS011;6444;49.742;6.114;2023-09-12T11:37:24;8.88;;;7.72;;
12760;SDS011;6444;49.742;6.114;2023-09-12T11:39:53;11.50;;;8.07;;
12760;SDS011;6444;49.742;6.114;2023-09-12T11:42:20;9.10;;;7.75;;
12760;SDS011;6444;49.742;6.114;2023-09-12T11:44:47;8.00;;;7.20;;
12760;SDS011;6444;49.742;6.114;2023-09-12T11:47:13;9.93;;;8.35;;
12760;SDS011;6444;49.742;6.114;2023-09-12T11:49:40;9.48;;;8.52;;
12760;SDS011;6444;49.742;6.114;2023-09-12T11:52:10;8.88;;;7.97;;
12760;SDS011;6444;49.742;6.114;2023-09-12T11:54:36;11.12;;;8.10;;
12760;SDS011;6444;49.742;6.114;2023-09-12T11:57:02;10.13;;;8.18;;
12760;SDS011;6444;49.742;6.114;2023-09-12T11:59:29;9.77;;;8.20;;
12760;SDS011;6444;49.742;6.114;2023-09-12T12:01:56;9.95;;;7.57;;
12760;SDS011;6444;49.742;6.114;2023-09-12T12:04:23;10.77;;;7.45;;
12760;SDS011;6444;49.742;6.114;2023-09-12T12:06:50;8.95;;;8.02;;
12760;SDS011;6444;49.742;6.114;2023-09-12T12:09:16;11.20;;;8.18;;
12760;SDS011;6444;49.742;6.114;2023-09-12T12:11:42;11.15;;;8.88;;
12760;SDS011;6444;49.742;6.114;2023-09-12T12:14:16;9.73;;;8.15;;
12760;SDS011;6444;49.742;6.114;2023-09-12T12:16:42;9.63;;;8.63;;
12760;SDS011;6444;49.742;6.114;2023-09-12T12:19:11;11.27;;;8.77;;
12760;SDS011;6444;49.742;6.114;2023-09-12T12:21:39;11.18;;;9.50;;
12760;SDS011;6444;49.742;6.114;2023-09-12T12:24:07;11.95;;;9.43;;
12760;SDS011;6444;49.742;6.114;2023-09-12T12:26:33;12.30;;;8.52;;
12760;SDS011;6444;49.742;6.114;2023-09-12T12:29:00;9.48;;;8.45;;
12760;SDS011;6444;49.742;6.114;2023-09-12T12:31:27;9.77;;;8.60;;
12760;SDS011;6444;49.742;6.114;2023-09-12T12:33:54;9.40;;;8.40;;
12760;SDS011;6444;49.742;6.114;2023-09-12T12:36:21;9.60;;;8.07;;
12760;SDS011;6444;49.742;6.114;2023-09-12T12:38:48;9.73;;;8.52;;
12760;SDS011;6444;49.742;6.114;2023-09-12T12:41:15;8.40;;;7.57;;
12760;SDS011;6444;49.742;6.114;2023-09-12T12:43:41;9.38;;;7.53;;
12760;SDS011;6444;49.742;6.114;2023-09-12T12:46:11;9.90;;;8.25;;
12760;SDS011;6444;49.742;6.114;2023-09-12T12:48:38;10.10;;;8.23;;
12760;SDS011;6444;49.742;6.114;2023-09-12T12:51:23;8.20;;;7.43;;
12760;SDS011;6444;49.742;6.114;2023-09-12T12:53:50;10.93;;;8.05;;
12760;SDS011;6444;49.742;6.114;2023-09-12T12:56:20;9.32;;;8.10;;
12760;SDS011;6444;49.742;6.114;2023-09-12T12:58:51;9.63;;;8.05;;
12760;SDS011;6444;49.742;6.114;2023-09-12T13:01:17;7.62;;;6.82;;
12760;SDS011;6444;49.742;6.114;2023-09-12T13:03:44;8.25;;;6.97;;
12760;SDS011;6444;49.742;6.114;2023-09-12T13:08:44;11.85;;;8.70;;
12760;SDS011;6444;49.742;6.114;2023-09-12T13:11:10;10.63;;;8.20;;
12760;SDS011;6444;49.742;6.114;2023-09-12T13:13:37;10.77;;;7.80;;
12760;SDS011;6444;49.742;6.114;2023-09-12T13:16:07;11.18;;;8.25;;
12760;SDS011;6444;49.742;6.114;2023-09-12T13:18:31;8.57;;;7.30;;
12760;SDS011;6444;49.742;6.114;2023-09-12T13:20:56;7.78;;;6.97;;
12760;SDS011;6444;49.742;6.114;2023-09-12T13:23:23;8.63;;;6.70;;
12760;SDS011;6444;49.742;6.114;2023-09-12T13:25:50;9.40;;;6.72;;
12760;SDS011;6444;49.742;6.114;2023-09-12T13:28:16;7.90;;;7.10;;
12760;SDS011;6444;49.742;6.114;2023-09-12T13:30:43;7.43;;;6.20;;
12760;SDS011;6444;49.742;6.114;2023-09-12T13:33:10;7.05;;;6.35;;
12760;SDS011;6444;49.742;6.114;2023-09-12T13:35:36;9.95;;;6.37;;
12760;SDS011;6444;49.742;6.114;2023-09-12T13:38:03;9.10;;;6.37;;
12760;SDS011;6444;49.742;6.114;2023-09-12T13:40:29;11.75;;;6.22;;
12760;SDS011;6444;49.742;6.114;2023-09-12T13:42:56;7.40;;;5.93;;
12760;SDS011;6444;49.742;6.114;2023-09-12T13:45:23;8.50;;;6.32;;
12760;SDS011;6444;49.742;6.114;2023-09-12T13:47:49;7.85;;;6.12;;
12760;SDS011;6444;49.742;6.114;2023-09-12T13:50:17;6.72;;;5.70;;
12760;SDS011;6444;49.742;6.114;2023-09-12T13:52:43;7.70;;;5.70;;
12760;SDS011;6444;49.742;6.114;2023-09-12T13:55:10;6.20;;;5.60;;
12760;SDS011;6444;49.742;6.114;2023-09-12T13:57:36;6.75;;;5.78;;
12760;SDS011;6444;49.742;6.114;2023-09-12T14:00:03;7.43;;;5.70;;
12760;SDS011;6444;49.742;6.114;2023-09-12T14:02:31;6.22;;;5.72;;
12760;SDS011;6444;49.742;6.114;2023-09-12T14:04:57;6.55;;;5.57;;
12760;SDS011;6444;49.742;6.114;2023-09-12T14:07:24;7.95;;;6.60;;
12760;SDS011;6444;49.742;6.114;2023-09-12T14:09:50;7.87;;;5.55;;
12760;SDS011;6444;49.742;6.114;2023-09-12T14:12:17;7.60;;;5.53;;
12760;SDS011;6444;49.742;6.114;2023-09-12T14:14:44;7.65;;;5.97;;
12760;SDS011;6444;49.742;6.114;2023-09-12T14:17:11;7.00;;;6.32;;
12760;SDS011;6444;49.742;6.114;2023-09-12T14:19:38;6.15;;;5.55;;
12760;SDS011;6444;49.742;6.114;2023-09-12T14:22:04;9.95;;;5.80;;
12760;SDS011;6444;49.742;6.114;2023-09-12T14:24:31;7.35;;;5.90;;
12760;SDS011;6444;49.742;6.114;2023-09-12T14:26:58;8.70;;;5.60;;
12760;SDS011;6444;49.742;6.114;2023-09-12T14:29:24;7.53;;;6.00;;
12760;SDS011;6444;49.742;6.114;2023-09-12T14:31:51;8.27;;;5.70;;
12760;SDS011;6444;49.742;6.114;2023-09-12T14:34:17;7.75;;;5.78;;
12760;SDS011;6444;49.742;6.114;2023-09-12T14:36:44;8.25;;;6.40;;
12760;SDS011;6444;49.742;6.114;2023-09-12T14:39:14;8.35;;;6.62;;
12760;SDS011;6444;49.742;6.114;2023-09-12T14:41:40;10.07;;;6.30;;
12760;SDS011;6444;49.742;6.114;2023-09-12T14:44:07;9.13;;;6.12;;
12760;SDS011;6444;49.742;6.114;2023-09-12T14:46:34;7.05;;;6.32;;
12760;SDS011;6444;49.742;6.114;2023-09-12T14:49:01;7.35;;;6.37;;
12760;SDS011;6444;49.742;6.114;2023-09-12T14:51:27;7.28;;;6.57;;
12760;SDS011;6444;49.742;6.114;2023-09-12T14:53:53;7.82;;;6.45;;
12760;SDS011;6444;49.742;6.114;2023-09-12T14:56:20;7.03;;;6.43;;
12760;SDS011;6444;49.742;6.114;2023-09-12T14:58:47;10.77;;;6.40;;
12760;SDS011;6444;49.742;6.114;2023-09-12T15:01:13;6.40;;;5.57;;